This is the latest recevied weather packets stored in our database for station/object SV9TNF-52. If no packets are shown the sender has not sent any weather packets the latest 10 day(s).
| Time | Temp. | Humidity | Pressure | Rain* | Wind** | Luminosity | Snow |
|---|---|---|---|---|---|---|---|
| 1788355426 | 31.11° C | 46% | 1019.6 hPa | 0 mm | 2.68 m/s, 56° | - | - |
| 1788355126 | 31.11° C | 47% | 1019.6 hPa | 0 mm | 1.79 m/s, 29° | - | - |
| 1788354826 | 31.67° C | 46% | 1019.6 hPa | 0 mm | 3.13 m/s, 86° | - | - |
| 1788354526 | 31.67° C | 45% | 1020 hPa | 0 mm | 4.47 m/s, 4° | - | - |
| 1788354226 | 32.22° C | 46% | 1020 hPa | 0 mm | 4.92 m/s, 357° | - | - |
| 1788353925 | 32.78° C | 45% | 1020 hPa | 0 mm | 1.34 m/s, 82° | - | - |
| 1788353625 | 32.78° C | 45% | 1020 hPa | 0 mm | 0.89 m/s, 83° | - | - |
| 1788353325 | 32.78° C | 45% | 1020 hPa | 0 mm | 2.68 m/s, 275° | - | - |
| 1788353025 | 32.22° C | 46% | 1020 hPa | 0 mm | 4.02 m/s, 278° | - | - |
| 1788352725 | 32.78° C | 45% | 1020 hPa | 0 mm | 2.68 m/s, 73° | - | - |
| 1788352425 | 31.67° C | 48% | 1020 hPa | 0 mm | 3.58 m/s, 231° | - | - |
| 1788352125 | 31.11° C | 47% | 1020 hPa | 0 mm | 6.26 m/s, 105° | - | - |
| 1788351825 | 31.11° C | 49% | 1020 hPa | 0 mm | 5.81 m/s, 75° | - | - |
| 1788351525 | 30.56° C | 49% | 1020 hPa | 0 mm | 6.26 m/s, 101° | - | - |
| 1788351225 | 31.67° C | 46% | 1020 hPa | 0 mm | 8.05 m/s, 358° | - | - |
| 1788350924 | 32.78° C | 45% | 1020 hPa | 0 mm | 1.79 m/s, 248° | - | - |
| 1788350624 | 32.78° C | 46% | 1020 hPa | 0 mm | 3.58 m/s, 250° | - | - |
| 1788350324 | 31.67° C | 46% | 1020 hPa | 0 mm | 6.26 m/s, 339° | - | - |
| 1788350024 | 32.78° C | 47% | 1020 hPa | 0 mm | 2.68 m/s, 8° | - | - |
| 1788349725 | 33.33° C | 46% | 1020 hPa | 0 mm | 3.58 m/s, 261° | - | - |
| 1788349424 | 32.78° C | 46% | 1020 hPa | 0 mm | 4.92 m/s, 229° | - | - |
| 1788349124 | 32.22° C | 48% | 1020 hPa | 0 mm | 6.26 m/s, 167° | - | - |
| 1788348824 | 32.78° C | 46% | 1020 hPa | 0 mm | 3.58 m/s, 266° | - | - |
| 1788348524 | 32.22° C | 47% | 1020 hPa | 0 mm | 5.36 m/s, 356° | - | - |
| 1788348224 | 32.78° C | 47% | 1020 hPa | 0 mm | 3.13 m/s, 9° | - | - |
* Rain latest hour (hover to see other rain measurements)
** Current wind speed in m/s (hover to see current wind gust speed)